Time;durP1;ratioP1;P1;durP2;ratioP2;P2;SDS_P1;SDS_P2;PMS_P1;PMS_P2;Temp;Humidity;BMP_temperature;BMP_pressure;BME280_temperature;BME280_humidity;BME280_pressure;Samples;Min_cycle;Max_cycle;Signal;HPM_P1;HPM_P2
2021/04/22 00:01:18;;;;;;;13.83;12.53;;;8.20;92.60;;;;;;5097799;28;20182;-42
2021/04/22 00:03:44;;;;;;;14.33;12.83;;;8.10;92.70;;;;;;5097232;28;20249;-42
2021/04/22 00:06:10;;;;;;;14.50;13.00;;;8.20;92.90;;;;;;5097185;28;20204;-42
2021/04/22 00:08:36;;;;;;;14.03;12.53;;;8.10;92.90;;;;;;5097408;28;20465;-42
2021/04/22 00:11:01;;;;;;;16.87;14.60;;;8.10;93.00;;;;;;5097863;28;20271;-41
2021/04/22 00:13:30;;;;;;;15.60;12.30;;;8.00;93.10;;;;;;5097092;28;20200;-42
2021/04/22 00:15:57;;;;;;;14.10;12.63;;;8.00;93.30;;;;;;5097014;28;20195;-40
2021/04/22 00:18:23;;;;;;;15.23;13.67;;;7.90;93.50;;;;;;5096701;28;20493;-41
2021/04/22 00:20:49;;;;;;;15.00;13.50;;;7.90;93.70;;;;;;5097442;28;20474;-40
2021/04/22 00:23:17;;;;;;;16.43;14.73;;;8.00;93.70;;;;;;5097152;28;20706;-42
2021/04/22 00:25:43;;;;;;;15.53;13.93;;;8.00;93.70;;;;;;5097817;28;20758;-41
2021/04/22 00:28:11;;;;;;;14.73;13.13;;;8.00;93.80;;;;;;5097128;28;20426;-42
2021/04/22 00:30:38;;;;;;;15.27;13.67;;;8.00;93.80;;;;;;5079442;28;20418;-42
2021/04/22 00:33:09;;;;;;;15.20;13.70;;;8.10;93.80;;;;;;5096993;28;20443;-41
2021/04/22 00:35:35;;;;;;;16.23;14.37;;;8.10;93.80;;;;;;5097672;28;20823;-41
2021/04/22 00:38:03;;;;;;;16.13;14.43;;;8.20;93.90;;;;;;5097741;28;20768;-40
2021/04/22 00:40:30;;;;;;;16.40;13.83;;;8.40;93.90;;;;;;5100399;28;20479;-42
2021/04/22 00:42:59;;;;;;;16.33;14.73;;;8.50;93.60;;;;;;5100933;28;20450;-42
2021/04/22 00:45:25;;;;;;;15.83;13.77;;;8.60;93.50;;;;;;5100619;28;20913;-41
2021/04/22 00:47:51;;;;;;;14.73;13.17;;;8.70;93.20;;;;;;5100045;28;20441;-43
2021/04/22 00:50:23;;;;;;;13.90;12.50;;;8.80;93.00;;;;;;5100817;28;20414;-42
2021/04/22 00:52:52;;;;;;;17.27;14.37;;;8.80;92.70;;;;;;5100536;28;20238;-42
2021/04/22 00:55:18;;;;;;;14.97;13.53;;;8.80;92.60;;;;;;5100687;28;20470;-42
2021/04/22 00:57:44;;;;;;;18.47;16.33;;;8.70;92.60;;;;;;5100688;28;20429;-41
2021/04/22 01:00:11;;;;;;;19.83;15.90;;;8.70;93.10;;;;;;5099785;28;20249;-42
2021/04/22 01:02:38;;;;;;;21.47;18.17;;;8.70;92.90;;;;;;5100337;28;20690;-40
2021/04/22 01:05:11;;;;;;;19.40;17.40;;;8.80;92.90;;;;;;5100076;28;20423;-42
2021/04/22 01:07:41;;;;;;;21.30;18.87;;;8.80;92.90;;;;;;5100157;28;20438;-40
2021/04/22 01:10:08;;;;;;;19.57;17.50;;;8.90;92.80;;;;;;5100585;28;20417;-42
2021/04/22 01:12:34;;;;;;;21.17;18.90;;;9.00;92.80;;;;;;5099902;28;20423;-42
2021/04/22 01:15:00;;;;;;;21.87;19.70;;;9.00;92.70;;;;;;5100205;28;20535;-42
2021/04/22 01:17:26;;;;;;;20.03;17.90;;;9.10;93.00;;;;;;5100043;28;20256;-41
2021/04/22 01:19:51;;;;;;;22.50;20.00;;;9.10;92.70;;;;;;5099730;28;20165;-41
2021/04/22 01:22:17;;;;;;;23.27;20.93;;;9.20;92.80;;;;;;5099900;28;20336;-42
2021/04/22 01:24:43;;;;;;;18.47;16.70;;;9.30;92.80;;;;;;5098439;28;20503;-40
2021/04/22 01:27:11;;;;;;;19.00;15.27;;;9.30;92.40;;;;;;5099830;28;20543;-41
2021/04/22 01:29:37;;;;;;;16.23;14.53;;;9.30;92.40;;;;;;5099819;28;20551;-41
2021/04/22 01:32:05;;;;;;;18.93;16.93;;;9.20;92.40;;;;;;5099844;28;20532;-42
2021/04/22 01:34:32;;;;;;;18.00;16.20;;;9.20;92.50;;;;;;5099924;28;20758;-42
2021/04/22 01:36:57;;;;;;;16.83;15.13;;;9.20;92.60;;;;;;5081852;28;20438;-42
2021/04/22 01:39:23;;;;;;;17.30;15.60;;;9.20;92.60;;;;;;5099844;28;20421;-40
2021/04/22 01:41:49;;;;;;;16.47;14.83;;;9.10;92.40;;;;;;5100034;28;20180;-40
2021/04/22 01:44:15;;;;;;;17.50;15.77;;;9.10;92.50;;;;;;5099500;28;20693;-41
2021/04/22 01:46:40;;;;;;;15.23;13.43;;;9.10;92.80;;;;;;5099385;28;20531;-40
2021/04/22 01:49:06;;;;;;;16.87;15.27;;;9.10;92.90;;;;;;5099339;28;20448;-41
2021/04/22 01:51:32;;;;;;;15.17;13.67;;;9.10;92.90;;;;;;5099468;28;20500;-39
2021/04/22 01:53:58;;;;;;;16.13;14.53;;;9.10;93.10;;;;;;5098921;28;20526;-42
2021/04/22 01:56:26;;;;;;;16.90;15.20;;;9.10;93.10;;;;;;5099807;28;20248;-41
2021/04/22 01:58:52;;;;;;;17.10;15.40;;;9.10;93.20;;;;;;5099614;28;20411;-41
2021/04/22 02:01:18;;;;;;;16.47;14.57;;;9.20;93.20;;;;;;5098690;28;20428;-42
2021/04/22 02:03:44;;;;;;;16.77;15.17;;;9.20;93.20;;;;;;5098866;28;20194;-42
2021/04/22 02:06:10;;;;;;;16.90;15.00;;;9.20;93.30;;;;;;5099498;28;20324;-39
2021/04/22 02:08:36;;;;;;;19.40;17.43;;;9.20;93.30;;;;;;5099200;28;20441;-42
2021/04/22 02:11:03;;;;;;;22.17;19.80;;;9.20;93.30;;;;;;5099374;28;20418;-41
2021/04/22 02:13:29;;;;;;;20.33;18.33;;;9.20;93.40;;;;;;5099029;28;20569;-42
2021/04/22 02:15:55;;;;;;;22.67;20.40;;;9.20;93.70;;;;;;5099184;28;20409;-41
2021/04/22 02:18:21;;;;;;;24.40;21.90;;;9.20;93.90;;;;;;5099000;28;20590;-42
2021/04/22 02:20:48;;;;;;;22.57;20.17;;;9.10;94.10;;;;;;5098372;28;20483;-40
2021/04/22 02:23:16;;;;;;;29.57;22.20;;;9.20;94.70;;;;;;5098847;28;20207;-42
2021/04/22 02:25:43;;;;;;;25.37;22.57;;;9.20;94.50;;;;;;5099060;28;20445;-41
2021/04/22 02:28:09;;;;;;;25.27;22.73;;;9.20;94.70;;;;;;5098801;28;20847;-42
2021/04/22 02:30:37;;;;;;;25.40;22.70;;;9.20;94.70;;;;;;5098456;28;20450;-42
2021/04/22 02:33:06;;;;;;;27.87;23.77;;;9.30;94.80;;;;;;5098738;28;20426;-41
2021/04/22 02:35:34;;;;;;;26.70;23.80;;;9.30;94.70;;;;;;5099006;28;20422;-42
2021/04/22 02:38:01;;;;;;;26.97;22.97;;;9.20;94.80;;;;;;5098474;28;20521;-42
2021/04/22 02:40:29;;;;;;;26.60;23.80;;;9.20;94.90;;;;;;5098255;28;20673;-42
2021/04/22 02:42:57;;;;;;;26.83;24.13;;;9.20;95.10;;;;;;5098717;28;20879;-42
2021/04/22 02:45:29;;;;;;;26.77;24.13;;;9.30;95.30;;;;;;5098520;28;20760;-42
2021/04/22 02:47:55;;;;;;;29.00;26.10;;;9.20;95.50;;;;;;5098418;28;20418;-41
2021/04/22 02:50:23;;;;;;;30.07;26.97;;;9.20;95.80;;;;;;5096659;28;20413;-40
2021/04/22 02:52:49;;;;;;;29.93;26.63;;;9.20;96.20;;;;;;5096824;28;20438;-39
2021/04/22 02:55:15;;;;;;;29.00;25.83;;;9.20;96.30;;;;;;5079509;28;20526;-40
2021/04/22 02:57:41;;;;;;;29.47;26.37;;;9.20;96.30;;;;;;5098202;28;20422;-40
2021/04/22 03:00:11;;;;;;;29.10;26.10;;;9.20;96.30;;;;;;5096986;28;20410;-39
2021/04/22 03:02:37;;;;;;;29.30;26.20;;;9.20;96.40;;;;;;5097866;28;20427;-40
2021/04/22 03:05:04;;;;;;;31.30;27.80;;;9.30;96.60;;;;;;5097968;28;20410;-41
2021/04/22 03:07:30;;;;;;;30.57;27.30;;;9.20;96.50;;;;;;5080375;28;20195;-40
2021/04/22 03:09:56;;;;;;;31.67;28.20;;;9.20;96.60;;;;;;5097644;28;20422;-40
2021/04/22 03:12:22;;;;;;;31.03;27.83;;;9.20;96.60;;;;;;5097998;28;20466;-41
2021/04/22 03:14:47;;;;;;;31.97;27.50;;;9.20;96.60;;;;;;5098040;28;20548;-40
2021/04/22 03:17:13;;;;;;;33.93;29.87;;;9.20;96.60;;;;;;5098122;28;20641;-41
2021/04/22 03:19:39;;;;;;;33.40;27.90;;;9.20;96.70;;;;;;5097597;28;20215;-40
2021/04/22 03:22:05;;;;;;;32.77;28.40;;;9.20;96.70;;;;;;5097806;28;20461;-42
2021/04/22 03:24:31;;;;;;;35.70;28.47;;;9.10;96.70;;;;;;5097725;28;20184;-40
2021/04/22 03:26:57;;;;;;;33.27;29.53;;;9.10;96.70;;;;;;5097817;28;20422;-41
2021/04/22 03:29:22;;;;;;;36.50;31.10;;;9.10;96.60;;;;;;5098230;28;20504;-38
2021/04/22 03:31:48;;;;;;;33.10;29.60;;;9.20;96.70;;;;;;5098068;28;20844;-42
2021/04/22 03:34:14;;;;;;;35.03;31.13;;;9.20;96.70;;;;;;5097287;28;20200;-48
2021/04/22 03:36:40;;;;;;;34.37;30.67;;;9.20;96.70;;;;;;5080048;28;20438;-42
2021/04/22 03:39:06;;;;;;;34.83;30.57;;;9.20;96.70;;;;;;5097556;28;20165;-42
2021/04/22 03:41:32;;;;;;;37.57;31.27;;;9.20;96.80;;;;;;5079955;28;20414;-41
2021/04/22 03:43:58;;;;;;;38.13;32.00;;;9.10;96.80;;;;;;5097606;28;20399;-41
2021/04/22 03:46:24;;;;;;;37.87;32.43;;;9.00;97.00;;;;;;5097341;28;20172;-41
2021/04/22 03:48:50;;;;;;;38.43;31.90;;;9.00;97.10;;;;;;5097504;28;20717;-41
2021/04/22 03:51:16;;;;;;;38.90;34.63;;;9.00;97.20;;;;;;5097911;28;20419;-42
2021/04/22 03:53:42;;;;;;;37.03;32.80;;;9.00;97.20;;;;;;5097988;28;20495;-42
2021/04/22 03:56:09;;;;;;;36.33;31.57;;;8.90;97.20;;;;;;5097576;28;20413;-39
2021/04/22 03:58:35;;;;;;;40.13;35.77;;;8.90;97.20;;;;;;5097557;28;20237;-41
2021/04/22 04:01:02;;;;;;;43.03;34.93;;;8.80;97.30;;;;;;5097430;28;20425;-40
2021/04/22 04:03:28;;;;;;;41.50;36.20;;;8.70;97.40;;;;;;5097689;28;20836;-41
2021/04/22 04:05:54;;;;;;;39.70;33.20;;;8.70;97.60;;;;;;5097400;28;20670;-41
2021/04/22 04:08:20;;;;;;;40.40;33.07;;;8.70;97.70;;;;;;5097833;28;20453;-40
2021/04/22 04:10:46;;;;;;;39.50;35.30;;;8.70;97.70;;;;;;5097144;28;20418;-42
2021/04/22 04:13:11;;;;;;;38.60;31.93;;;8.70;97.50;;;;;;5100205;28;20199;-42
2021/04/22 04:15:37;;;;;;;32.77;29.00;;;8.70;97.40;;;;;;5100941;28;20175;-40
2021/04/22 04:18:05;;;;;;;36.57;30.90;;;8.60;97.40;;;;;;5101457;28;20562;-41
2021/04/22 04:20:31;;;;;;;36.20;29.30;;;8.60;97.40;;;;;;5100702;28;20444;-42
2021/04/22 04:22:57;;;;;;;35.00;30.57;;;8.50;97.40;;;;;;5100867;28;20430;-40
2021/04/22 04:25:23;;;;;;;34.57;30.70;;;8.50;97.40;;;;;;5101029;28;20411;-41
2021/04/22 04:27:48;;;;;;;33.53;29.20;;;8.40;97.50;;;;;;5100811;28;20441;-42
2021/04/22 04:30:17;;;;;;;33.53;29.97;;;8.40;97.60;;;;;;5100533;28;20415;-41
2021/04/22 04:32:43;;;;;;;35.83;30.00;;;8.40;97.60;;;;;;5100715;28;20554;-41
2021/04/22 04:35:10;;;;;;;33.83;30.13;;;8.40;97.60;;;;;;5100657;28;20757;-42
2021/04/22 04:37:36;;;;;;;33.40;29.80;;;8.30;97.50;;;;;;5100761;28;20470;-42
2021/04/22 04:40:04;;;;;;;33.67;29.50;;;8.30;97.50;;;;;;5099592;28;20471;-43
2021/04/22 04:42:30;;;;;;;39.93;30.27;;;8.30;97.60;;;;;;5099859;28;20454;-43
2021/04/22 04:44:56;;;;;;;35.77;29.50;;;8.30;97.70;;;;;;5081649;28;20457;-43
2021/04/22 04:47:22;;;;;;;34.10;30.47;;;8.30;97.80;;;;;;5099348;28;20283;-43
2021/04/22 04:49:47;;;;;;;35.40;30.90;;;8.30;97.90;;;;;;5099883;28;20402;-43
2021/04/22 04:52:13;;;;;;;40.27;31.10;;;8.30;98.00;;;;;;5100056;28;20187;-40
2021/04/22 04:54:39;;;;;;;38.40;31.73;;;8.30;98.00;;;;;;5100592;28;20240;-43
2021/04/22 04:57:08;;;;;;;39.67;33.57;;;8.30;98.20;;;;;;5080911;28;20566;-43
2021/04/22 04:59:34;;;;;;;34.70;31.00;;;8.30;98.20;;;;;;5100341;28;20497;-44
2021/04/22 05:02:00;;;;;;;36.37;32.27;;;8.40;98.20;;;;;;5100037;28;20422;-42
2021/04/22 05:04:26;;;;;;;41.17;35.00;;;8.40;98.20;;;;;;5098433;28;20414;-43
2021/04/22 05:06:52;;;;;;;37.50;32.27;;;8.40;98.10;;;;;;5099448;28;20194;-43
2021/04/22 05:09:18;;;;;;;45.50;35.70;;;8.50;98.20;;;;;;5100385;28;20888;-42
2021/04/22 05:11:43;;;;;;;43.80;36.07;;;8.50;98.30;;;;;;5099432;28;20550;-43
2021/04/22 05:14:09;;;;;;;40.27;34.40;;;8.60;98.30;;;;;;5099780;28;20208;-42
2021/04/22 05:16:35;;;;;;;43.37;34.90;;;8.70;98.20;;;;;;5099054;28;20172;-43
2021/04/22 05:19:02;;;;;;;41.43;35.00;;;8.70;98.10;;;;;;5099465;28;20560;-43
2021/04/22 05:21:27;;;;;;;38.50;32.07;;;8.70;98.10;;;;;;5098567;28;20172;-42
2021/04/22 05:23:54;;;;;;;44.13;33.80;;;8.80;98.10;;;;;;5096860;28;20421;-43
2021/04/22 05:26:21;;;;;;;36.47;32.17;;;8.80;98.00;;;;;;5099173;28;20430;-43
2021/04/22 05:28:47;;;;;;;38.90;34.70;;;8.90;97.80;;;;;;5098764;28;20702;-43
2021/04/22 05:31:13;;;;;;;42.60;34.83;;;9.00;97.80;;;;;;5097700;28;20410;-43
2021/04/22 05:33:38;;;;;;;44.20;34.60;;;9.00;97.70;;;;;;5097231;28;20496;-43
2021/04/22 05:36:05;;;;;;;35.13;31.43;;;9.10;97.50;;;;;;5096499;28;20624;-43
2021/04/22 05:38:31;;;;;;;45.20;35.03;;;9.20;97.20;;;;;;5095362;28;20168;-44
2021/04/22 05:40:57;;;;;;;38.80;33.30;;;9.20;97.20;;;;;;5094275;28;20421;-41
2021/04/22 05:43:23;;;;;;;42.17;35.37;;;9.30;97.10;;;;;;5096363;28;20769;-44
2021/04/22 05:45:48;;;;;;;36.63;32.83;;;9.40;97.00;;;;;;5096630;28;20519;-44
2021/04/22 05:48:14;;;;;;;36.10;32.20;;;9.40;96.90;;;;;;5096998;28;20196;-43
2021/04/22 05:50:41;;;;;;;36.20;31.27;;;9.40;96.70;;;;;;5095785;28;20255;-43
2021/04/22 05:53:07;;;;;;;36.37;32.17;;;9.50;96.60;;;;;;5096010;28;20180;-43
2021/04/22 05:55:33;;;;;;;36.70;30.30;;;9.50;96.00;;;;;;5095258;28;20556;-43
2021/04/22 05:58:00;;;;;;;34.00;30.50;;;9.60;96.10;;;;;;5094279;28;20517;-42
2021/04/22 06:00:28;;;;;;;36.17;30.33;;;9.70;96.00;;;;;;5076913;28;20191;-42
2021/04/22 06:02:55;;;;;;;32.97;29.13;;;9.70;95.70;;;;;;5096448;28;20415;-42
2021/04/22 06:05:24;;;;;;;33.17;29.27;;;9.90;95.80;;;;;;5098071;28;20533;-43
2021/04/22 06:07:51;;;;;;;31.57;28.17;;;10.00;94.80;;;;;;5079362;28;20438;-43
2021/04/22 06:10:18;;;;;;;35.20;28.77;;;10.20;94.10;;;;;;5096821;28;20418;-41
2021/04/22 06:12:44;;;;;;;30.60;27.30;;;10.20;94.00;;;;;;5096824;28;20816;-41
2021/04/22 06:15:11;;;;;;;36.80;29.63;;;10.30;94.00;;;;;;5096821;28;20485;-42
2021/04/22 06:17:37;;;;;;;31.63;28.20;;;10.40;93.70;;;;;;5096781;28;20523;-42
2021/04/22 06:20:23;;;;;;;29.83;26.73;;;10.50;93.70;;;;;;5078929;28;20419;-41
2021/04/22 06:22:50;;;;;;;31.87;28.40;;;10.50;93.40;;;;;;5096624;28;20450;-41
2021/04/22 06:25:18;;;;;;;30.50;27.37;;;10.50;93.10;;;;;;5096946;28;20485;-41
2021/04/22 06:27:44;;;;;;;30.73;27.40;;;10.50;93.20;;;;;;5096144;28;20460;-43
2021/04/22 06:30:10;;;;;;;30.40;27.23;;;10.50;93.00;;;;;;5097655;28;20418;-43
2021/04/22 06:32:37;;;;;;;31.03;27.83;;;10.50;93.00;;;;;;5083224;28;20215;-38
2021/04/22 06:35:05;;;;;;;31.87;27.20;;;10.60;93.00;;;;;;5076234;28;20462;-43
2021/04/22 06:37:31;;;;;;;34.50;28.00;;;10.60;92.90;;;;;;5076596;28;20431;-42
2021/04/22 06:39:57;;;;;;;30.73;27.47;;;10.50;92.90;;;;;;5076838;28;20837;-40
2021/04/22 06:42:23;;;;;;;29.90;26.90;;;10.50;93.20;;;;;;5076069;28;20607;-42
2021/04/22 06:44:49;;;;;;;34.37;30.37;;;10.50;93.30;;;;;;5076291;28;20443;-40
2021/04/22 06:47:14;;;;;;;33.03;27.47;;;10.30;93.30;;;;;;5076580;28;20470;-39
2021/04/22 06:49:41;;;;;;;30.60;27.50;;;10.40;93.50;;;;;;5075506;28;20418;-38
2021/04/22 06:52:07;;;;;;;30.10;26.97;;;10.50;93.20;;;;;;5076141;28;20181;-40
2021/04/22 06:54:33;;;;;;;32.23;27.30;;;10.60;93.20;;;;;;5076751;28;20467;-38
2021/04/22 06:56:59;;;;;;;34.03;28.37;;;10.60;93.00;;;;;;5077491;28;20431;-40
2021/04/22 06:59:27;;;;;;;29.50;26.47;;;10.70;92.90;;;;;;5077089;28;20416;-39
2021/04/22 07:01:53;;;;;;;31.23;26.97;;;10.80;92.60;;;;;;5059839;28;20181;-40
2021/04/22 07:04:19;;;;;;;30.70;27.23;;;10.70;92.20;;;;;;5076527;28;20411;-43
2021/04/22 07:06:45;;;;;;;32.53;28.40;;;10.60;92.20;;;;;;5075484;28;20438;-41
2021/04/22 07:09:11;;;;;;;30.23;27.10;;;10.50;92.20;;;;;;5075576;28;20419;-41
2021/04/22 07:11:37;;;;;;;31.07;27.40;;;10.50;92.40;;;;;;5073579;28;20578;-41
2021/04/22 07:14:03;;;;;;;34.67;27.47;;;10.50;92.70;;;;;;5074610;28;20930;-38
2021/04/22 07:16:29;;;;;;;34.40;28.30;;;10.50;92.50;;;;;;5075632;28;20772;-39
2021/04/22 07:18:55;;;;;;;31.77;28.43;;;10.60;92.20;;;;;;5075308;28;20224;-41
2021/04/22 07:21:21;;;;;;;34.17;30.57;;;10.80;92.10;;;;;;5074129;28;20817;-41
2021/04/22 07:23:47;;;;;;;31.60;27.70;;;10.90;91.70;;;;;;5072829;28;20337;-41
2021/04/22 07:26:13;;;;;;;28.40;25.60;;;11.00;91.40;;;;;;5074802;28;20177;-40
2021/04/22 07:28:38;;;;;;;30.60;27.20;;;11.10;91.40;;;;;;5074029;28;20610;-39
2021/04/22 07:31:04;;;;;;;29.20;26.10;;;11.30;91.20;;;;;;5073404;28;20415;-41
2021/04/22 07:33:30;;;;;;;33.43;27.80;;;11.40;91.30;;;;;;5074157;28;20176;-40
2021/04/22 07:35:56;;;;;;;30.20;26.87;;;11.60;91.10;;;;;;5075292;28;20263;-41
2021/04/22 07:38:21;;;;;;;29.80;26.47;;;11.80;90.60;;;;;;5056808;28;20531;-41
2021/04/22 07:40:48;;;;;;;26.83;24.13;;;12.10;90.10;;;;;;5075142;28;20191;-42
2021/04/22 07:43:14;;;;;;;28.87;24.53;;;12.10;90.10;;;;;;5075486;28;20173;-40
2021/04/22 07:45:42;;;;;;;28.33;25.03;;;12.40;88.00;;;;;;5073911;28;20411;-40
2021/04/22 07:48:10;;;;;;;25.37;22.70;;;12.70;86.20;;;;;;5077930;28;20430;-40
2021/04/22 07:50:36;;;;;;;25.67;22.97;;;12.70;85.40;;;;;;5079593;28;20415;-42
2021/04/22 07:53:05;;;;;;;26.63;23.60;;;12.80;85.30;;;;;;5078413;28;20419;-40
2021/04/22 07:55:33;;;;;;;25.77;22.30;;;12.60;84.60;;;;;;5060967;28;20665;-41
2021/04/22 07:58:00;;;;;;;26.63;23.83;;;12.40;84.20;;;;;;5080362;28;20427;-40
2021/04/22 08:00:26;;;;;;;27.10;24.23;;;12.20;84.20;;;;;;5080550;28;20407;-39
2021/04/22 08:02:54;;;;;;;25.37;22.63;;;12.10;86.40;;;;;;5079818;28;20904;-41
2021/04/22 08:05:22;;;;;;;29.27;24.60;;;12.30;85.50;;;;;;5045876;28;20548;-41
2021/04/22 08:07:48;;;;;;;26.23;23.30;;;12.40;84.90;;;;;;5079502;28;20722;-40
2021/04/22 08:10:17;;;;;;;26.20;23.37;;;12.40;84.30;;;;;;5080150;28;20729;-40
2021/04/22 08:12:43;;;;;;;24.07;21.23;;;12.50;85.30;;;;;;5079325;28;20181;-39
2021/04/22 08:15:11;;;;;;;24.50;21.73;;;12.50;84.60;;;;;;5079006;28;20466;-42
2021/04/22 08:17:40;;;;;;;27.67;21.93;;;12.20;85.00;;;;;;5079840;28;20477;-41
2021/04/22 08:20:12;;;;;;;28.60;22.33;;;12.30;85.40;;;;;;5080225;28;20422;-41
2021/04/22 08:22:39;;;;;;;23.90;21.40;;;12.50;84.80;;;;;;5079885;28;20620;-40
2021/04/22 08:25:11;;;;;;;28.10;22.37;;;12.40;84.20;;;;;;5079977;28;20451;-38
2021/04/22 08:27:37;;;;;;;23.90;20.70;;;12.60;83.40;;;;;;5079051;28;20592;-42
2021/04/22 08:30:06;;;;;;;23.00;20.30;;;12.90;83.40;;;;;;5099473;28;21086;-38
2021/04/22 08:32:32;;;;;;;25.43;19.37;;;13.40;80.60;;;;;;5098456;28;20895;-38
2021/04/22 08:34:58;;;;;;;23.60;18.97;;;13.70;79.40;;;;;;5097443;28;20698;-41
2021/04/22 08:37:24;;;;;;;21.73;17.80;;;13.70;78.90;;;;;;5095671;28;20464;-40
2021/04/22 08:39:50;;;;;;;20.53;18.30;;;14.00;77.60;;;;;;5096104;28;20165;-41
2021/04/22 08:42:16;;;;;;;21.23;17.17;;;13.90;76.80;;;;;;5095608;28;20184;-41
2021/04/22 08:44:42;;;;;;;21.10;17.87;;;13.90;77.30;;;;;;5097283;28;20467;-41
2021/04/22 08:47:08;;;;;;;20.57;18.33;;;13.80;76.90;;;;;;5079845;28;20194;-41
2021/04/22 08:49:33;;;;;;;20.93;17.10;;;14.00;75.20;;;;;;5080361;28;20832;-41
2021/04/22 08:51:59;;;;;;;19.93;17.47;;;14.20;75.20;;;;;;5099087;28;20495;-40
2021/04/22 08:54:26;;;;;;;21.20;17.50;;;14.50;72.60;;;;;;5099942;28;20281;-39
2021/04/22 08:56:51;;;;;;;22.70;17.57;;;14.80;72.60;;;;;;5096546;28;20444;-41
2021/04/22 08:59:18;;;;;;;18.67;16.57;;;15.00;71.30;;;;;;5096244;28;20410;-41
2021/04/22 09:01:44;;;;;;;17.03;15.30;;;14.70;72.00;;;;;;5080105;28;20204;-41
2021/04/22 09:04:11;;;;;;;20.23;18.23;;;15.10;70.70;;;;;;5100037;28;20415;-40
2021/04/22 09:06:38;;;;;;;17.07;14.63;;;15.60;68.40;;;;;;5098205;28;20492;-39
2021/04/22 09:09:06;;;;;;;17.00;15.40;;;16.10;67.40;;;;;;5098517;28;20452;-38
2021/04/22 09:11:41;;;;;;;15.00;11.37;;;16.60;66.90;;;;;;5099635;28;20422;-45
2021/04/22 09:14:16;;;;;;;14.47;12.20;;;17.40;66.00;;;;;;5099515;28;20747;-43
2021/04/22 09:16:43;;;;;;;13.93;12.13;;;18.20;64.10;;;;;;5100028;28;20478;-43
2021/04/22 09:19:12;;;;;;;16.20;14.37;;;17.90;63.00;;;;;;5099016;28;20473;-43
2021/04/22 09:21:41;;;;;;;15.93;13.93;;;18.10;59.60;;;;;;5079544;28;20410;-43
2021/04/22 09:24:13;;;;;;;19.93;13.63;;;18.20;59.20;;;;;;5097482;28;20763;-43
2021/04/22 09:26:50;;;;;;;13.83;12.43;;;18.20;58.40;;;;;;5099641;28;20484;-42
2021/04/22 09:29:48;;;;;;;15.77;13.90;;;18.50;58.40;;;;;;5099280;28;20505;-43
2021/04/22 09:32:27;;;;;;;14.07;12.67;;;18.20;55.30;;;;;;5097937;28;20437;-43
2021/04/22 09:35:07;;;;;;;16.23;12.90;;;17.80;57.70;;;;;;5098178;28;20514;-43
2021/04/22 09:37:50;;;;;;;16.70;13.50;;;19.00;55.70;;;;;;5080313;28;20422;-43
2021/04/22 09:40:24;;;;;;;18.50;13.63;;;19.30;54.10;;;;;;5097458;28;20425;-43
2021/04/22 09:42:51;;;;;;;16.70;14.90;;;19.20;53.60;;;;;;5098026;28;20910;-43
2021/04/22 09:45:24;;;;;;;18.60;13.10;;;19.90;52.70;;;;;;5096493;28;20418;-43
2021/04/22 09:47:50;;;;;;;14.43;12.93;;;19.40;52.00;;;;;;5097091;28;20429;-42
2021/04/22 09:50:21;;;;;;;13.73;12.30;;;19.70;52.20;;;;;;5095950;28;20510;-43
2021/04/22 09:52:52;;;;;;;16.17;14.57;;;20.20;51.20;;;;;;5098088;28;20446;-35
2021/04/22 09:55:20;;;;;;;17.13;14.03;;;19.70;49.10;;;;;;5100709;28;20879;-36
2021/04/22 09:57:47;;;;;;;14.50;13.00;;;19.40;51.30;;;;;;5099494;28;20475;-34
2021/04/22 10:00:18;;;;;;;15.70;14.23;;;20.40;50.20;;;;;;5098407;28;20501;-35
2021/04/22 10:02:51;;;;;;;19.03;15.17;;;21.30;49.20;;;;;;5100097;28;20414;-35
2021/04/22 10:05:37;;;;;;;17.13;14.50;;;21.20;47.20;;;;;;5100138;28;20418;-40
2021/04/22 10:08:15;;;;;;;17.13;15.43;;;21.90;47.10;;;;;;5096340;28;20506;-42
2021/04/22 10:11:02;;;;;;;14.50;13.00;;;19.40;45.90;;;;;;5097100;28;20483;-42
2021/04/22 10:13:40;;;;;;;13.43;12.03;;;20.50;49.30;;;;;;5096735;28;20431;-43
2021/04/22 10:16:06;;;;;;;16.87;15.37;;;21.70;47.00;;;;;;5098027;28;20418;-42
2021/04/22 10:18:36;;;;;;;17.43;15.63;;;21.80;44.80;;;;;;5096782;28;20470;-41
2021/04/22 10:21:03;;;;;;;16.50;14.63;;;20.50;45.00;;;;;;5097475;28;20864;-40
2021/04/22 10:23:29;;;;;;;15.60;14.10;;;21.60;45.60;;;;;;5097086;28;20443;-41
2021/04/22 10:25:56;;;;;;;13.97;12.57;;;22.00;44.20;;;;;;5096758;28;20793;-42
2021/04/22 10:28:22;;;;;;;14.20;12.87;;;23.30;44.40;;;;;;5096338;28;20483;-43
2021/04/22 10:30:51;;;;;;;14.43;13.03;;;24.10;42.10;;;;;;5097576;28;20418;-40
2021/04/22 10:33:18;;;;;;;13.83;12.10;;;23.60;40.70;;;;;;5097278;28;20839;-41
2021/04/22 10:35:45;;;;;;;14.93;13.53;;;24.80;40.80;;;;;;5096473;28;20828;-41
2021/04/22 10:38:12;;;;;;;14.73;13.23;;;24.50;39.30;;;;;;5095476;28;20418;-41
2021/04/22 10:40:47;;;;;;;16.23;13.90;;;24.10;38.80;;;;;;5095305;28;20497;-40
2021/04/22 10:43:21;;;;;;;13.67;12.57;;;24.10;38.70;;;;;;5096718;28;20816;-41
2021/04/22 10:45:48;;;;;;;14.93;12.63;;;24.00;39.40;;;;;;5096206;28;20840;-42
2021/04/22 10:48:14;;;;;;;13.73;12.53;;;25.70;38.20;;;;;;5095608;28;20426;-40
2021/04/22 10:50:44;;;;;;;12.73;11.53;;;26.10;37.20;;;;;;5095257;28;20419;-42
2021/04/22 10:53:13;;;;;;;11.93;10.83;;;27.10;36.20;;;;;;5094923;28;20459;-43
2021/04/22 10:55:42;;;;;;;14.43;13.13;;;26.40;36.20;;;;;;5095466;28;20469;-42
2021/04/22 10:58:25;;;;;;;14.07;12.07;;;25.70;35.40;;;;;;5095025;28;20423;-42
2021/04/22 11:00:51;;;;;;;12.53;11.20;;;25.90;36.10;;;;;;5094968;28;20684;-43
2021/04/22 11:03:35;;;;;;;11.37;10.33;;;26.80;35.10;;;;;;5095126;28;20422;-43
2021/04/22 11:06:08;;;;;;;13.27;11.93;;;27.70;34.50;;;;;;5093280;28;20687;-43
2021/04/22 11:08:42;;;;;;;12.53;11.33;;;27.70;34.10;;;;;;5094996;28;20414;-42
2021/04/22 11:11:24;;;;;;;15.30;13.67;;;28.60;33.20;;;;;;5096313;28;20841;-43
2021/04/22 11:14:22;;;;;;;13.87;12.53;;;25.10;34.80;;;;;;5095207;28;20462;-43
2021/04/22 11:16:53;;;;;;;13.23;11.93;;;26.30;34.90;;;;;;5094065;28;20557;-43
2021/04/22 11:19:23;;;;;;;12.50;10.57;;;27.50;33.50;;;;;;5095422;28;20868;-41
2021/04/22 11:21:56;;;;;;;14.77;13.33;;;28.40;32.50;;;;;;5094273;28;20438;-43
2021/04/22 11:24:36;;;;;;;15.27;13.87;;;25.90;32.70;;;;;;5095286;28;20885;-43
2021/04/22 11:27:05;;;;;;;13.17;11.73;;;25.90;33.60;;;;;;5096260;28;20441;-42
2021/04/22 11:29:43;;;;;;;11.10;10.00;;;25.70;34.70;;;;;;5096960;28;20418;-43
2021/04/22 11:32:39;;;;;;;14.70;13.30;;;27.50;33.70;;;;;;5096688;28;20422;-43
2021/04/22 11:35:05;;;;;;;10.73;8.80;;;28.80;32.50;;;;;;5095604;28;21021;-43
2021/04/22 11:37:37;;;;;;;12.97;11.70;;;29.90;31.40;;;;;;5096744;28;20829;-43
2021/04/22 11:40:18;;;;;;;9.67;8.63;;;29.40;28.90;;;;;;5096746;28;20176;-42
2021/04/22 11:42:48;;;;;;;10.83;9.77;;;27.90;30.90;;;;;;5096268;28;20418;-42
2021/04/22 11:45:23;;;;;;;12.67;11.47;;;27.90;29.90;;;;;;5097402;28;20415;-41
2021/04/22 11:48:11;;;;;;;10.43;9.40;;;26.00;30.00;;;;;;5096906;28;20680;-43
2021/04/22 11:50:51;;;;;;;10.73;9.63;;;27.10;31.10;;;;;;5095260;28;20503;-40
2021/04/22 11:53:22;;;;;;;13.10;12.00;;;26.90;30.00;;;;;;5095702;28;20425;-41
2021/04/22 11:55:54;;;;;;;11.73;10.53;;;26.00;30.00;;;;;;5096567;28;20667;-41
2021/04/22 11:58:24;;;;;;;10.10;9.30;;;23.30;31.90;;;;;;5096614;28;20863;-43
2021/04/22 12:00:54;;;;;;;9.27;8.50;;;25.90;32.80;;;;;;5112702;28;20406;-43
2021/04/22 12:03:26;;;;;;;9.47;8.57;;;27.60;30.40;;;;;;5078771;28;20452;-42
2021/04/22 12:05:58;;;;;;;9.40;7.60;;;28.90;29.70;;;;;;5096100;28;20453;-43
2021/04/22 12:08:29;;;;;;;10.03;7.63;;;30.10;28.80;;;;;;5094828;28;20457;-43
2021/04/22 12:10:56;;;;;;;11.53;9.33;;;30.20;27.90;;;;;;5094164;28;20429;-43
2021/04/22 12:13:22;;;;;;;8.00;7.20;;;29.60;27.90;;;;;;5094674;28;20435;-43
2021/04/22 12:15:50;;;;;;;10.07;8.30;;;30.00;27.30;;;;;;5094434;28;20519;-42
2021/04/22 12:18:23;;;;;;;8.80;8.00;;;28.80;27.60;;;;;;5094569;28;20914;-42
2021/04/22 12:20:50;;;;;;;8.60;7.37;;;29.60;27.60;;;;;;5095020;28;20480;-42
2021/04/22 12:23:29;;;;;;;6.53;5.77;;;29.80;27.00;;;;;;5096233;28;20897;-42
2021/04/22 12:25:55;;;;;;;10.27;7.00;;;30.00;26.80;;;;;;5096398;28;20463;-43
2021/04/22 12:28:21;;;;;;;6.17;5.53;;;30.00;26.00;;;;;;5095577;28;20915;-44
2021/04/22 12:30:49;;;;;;;7.00;5.70;;;30.80;26.70;;;;;;5094979;28;20431;-43
2021/04/22 12:33:21;;;;;;;5.30;4.07;;;31.70;25.80;;;;;;5094735;28;20422;-44
2021/04/22 12:35:55;;;;;;;4.93;4.10;;;31.50;25.30;;;;;;5097757;28;20477;-44
2021/04/22 12:38:25;;;;;;;5.60;5.10;;;31.80;24.90;;;;;;5098896;28;20426;-43